AEE0288 LGAV-LGKR
Flight info
| Callsign | AEE0288 |
|---|---|
| Flight time | 0h 46m |
| Altitude | 30000 |
| Route | LGAV/03R N0464F300 DCT KOR UL53 PARNA DCT LGKR/16 |
| Aircraft | A320/M-SDE3/L |
Departure
| Time | 2026-05-06 20:11 |
|---|---|
| Airport | Athens Eleftherios Venizelos International Airport (LGAV) |
Arrival
| Time | 2026-05-06 20:58 |
|---|---|
| Airport | Corfu Ioannis Kapodistrias International Airport (LGKR) |
| Time | Latitude | Longitude | Altitude | Speed | Heading |
|---|---|---|---|---|---|
| 2026-05-06 19:51 | 37.93653 | 23.94883 | 301 ft | 0 kts | 306° |
| 2026-05-06 20:04 | 37.93643 | 23.94900 | 301 ft | 2 kts | 306° |
| 2026-05-06 20:04 | 37.93633 | 23.94918 | 302 ft | 2 kts | 306° |
| 2026-05-06 20:05 | 37.93623 | 23.94935 | 301 ft | 2 kts | 306° |
| 2026-05-06 20:05 | 37.93616 | 23.94953 | 301 ft | 2 kts | 249° |
| 2026-05-06 20:05 | 37.93622 | 23.94966 | 301 ft | 0 kts | 199° |
| 2026-05-06 20:07 | 37.93617 | 23.94965 | 301 ft | 3 kts | 197° |
| 2026-05-06 20:07 | 37.93568 | 23.94929 | 303 ft | 13 kts | 217° |
| 2026-05-06 20:08 | 37.93486 | 23.94857 | 301 ft | 13 kts | 197° |
| 2026-05-06 20:08 | 37.93396 | 23.94890 | 300 ft | 11 kts | 192° |
| 2026-05-06 20:08 | 37.93326 | 23.94830 | 303 ft | 13 kts | 213° |
| 2026-05-06 20:08 | 37.93246 | 23.94754 | 300 ft | 15 kts | 217° |
| 2026-05-06 20:09 | 37.93153 | 23.94668 | 301 ft | 18 kts | 216° |
| 2026-05-06 20:09 | 37.93049 | 23.94569 | 302 ft | 19 kts | 223° |
| 2026-05-06 20:09 | 37.92944 | 23.94468 | 303 ft | 20 kts | 219° |
| 2026-05-06 20:09 | 37.92828 | 23.94356 | 302 ft | 22 kts | 216° |
| 2026-05-06 20:10 | 37.92700 | 23.94233 | 304 ft | 24 kts | 214° |
| 2026-05-06 20:10 | 37.92602 | 23.94227 | 303 ft | 13 kts | 143° |
| 2026-05-06 20:10 | 37.92546 | 23.94313 | 305 ft | 13 kts | 127° |
| 2026-05-06 20:10 | 37.92499 | 23.94405 | 310 ft | 12 kts | 104° |
| 2026-05-06 20:11 | 37.92641 | 23.94584 | 307 ft | 63 kts | 36° |
| 2026-05-06 20:11 | 37.93171 | 23.95095 | 296 ft | 124 kts | 36° |
| 2026-05-06 20:11 | 37.93987 | 23.95872 | 354 ft | 163 kts | 37° |
| 2026-05-06 20:11 | 37.94865 | 23.96715 | 1062 ft | 158 kts | 37° |
| 2026-05-06 20:12 | 37.95748 | 23.97561 | 1693 ft | 161 kts | 38° |
| 2026-05-06 20:12 | 37.96734 | 23.98271 | 2167 ft | 172 kts | 14° |
| 2026-05-06 20:12 | 37.97966 | 23.98107 | 2452 ft | 191 kts | 328° |
| 2026-05-06 20:12 | 37.98854 | 23.96802 | 2785 ft | 208 kts | 295° |
| 2026-05-06 20:13 | 37.99469 | 23.95066 | 3277 ft | 222 kts | 293° |
| 2026-05-06 20:13 | 38.00111 | 23.93188 | 3707 ft | 249 kts | 293° |
| 2026-05-06 20:13 | 38.00832 | 23.91052 | 4136 ft | 278 kts | 293° |
| 2026-05-06 20:13 | 38.01622 | 23.88685 | 4605 ft | 303 kts | 293° |
| 2026-05-06 20:14 | 38.02462 | 23.86157 | 5173 ft | 318 kts | 292° |
| 2026-05-06 20:14 | 38.03334 | 23.83628 | 6418 ft | 303 kts | 294° |
| 2026-05-06 20:14 | 38.04172 | 23.81264 | 7877 ft | 285 kts | 294° |
| 2026-05-06 20:14 | 38.04983 | 23.78987 | 8983 ft | 282 kts | 294° |
| 2026-05-06 20:15 | 38.05783 | 23.76725 | 9873 ft | 284 kts | 294° |
| 2026-05-06 20:15 | 38.06610 | 23.74369 | 10388 ft | 301 kts | 294° |
| 2026-05-06 20:15 | 38.07484 | 23.71860 | 10600 ft | 324 kts | 294° |
| 2026-05-06 20:15 | 38.08429 | 23.69135 | 10833 ft | 345 kts | 294° |
| 2026-05-06 20:16 | 38.09400 | 23.66331 | 11406 ft | 353 kts | 294° |
| 2026-05-06 20:16 | 38.10402 | 23.63441 | 12050 ft | 358 kts | 294° |
| 2026-05-06 20:16 | 38.11402 | 23.60558 | 12750 ft | 360 kts | 294° |
| 2026-05-06 20:16 | 38.12406 | 23.57656 | 13442 ft | 364 kts | 294° |
| 2026-05-06 20:17 | 38.13433 | 23.54682 | 14105 ft | 367 kts | 294° |
| 2026-05-06 20:17 | 38.14460 | 23.51699 | 14727 ft | 369 kts | 294° |
| 2026-05-06 20:17 | 38.15483 | 23.48721 | 15342 ft | 371 kts | 294° |
| 2026-05-06 20:17 | 38.16525 | 23.45684 | 15961 ft | 373 kts | 294° |
| 2026-05-06 20:18 | 38.17541 | 23.42725 | 16523 ft | 375 kts | 294° |
| 2026-05-06 20:18 | 38.18385 | 23.40268 | 17043 ft | 376 kts | 294° |
| 2026-05-06 20:18 | 38.19409 | 23.37290 | 17665 ft | 379 kts | 294° |
| 2026-05-06 20:18 | 38.20466 | 23.34211 | 18277 ft | 381 kts | 294° |
| 2026-05-06 20:19 | 38.21527 | 23.31110 | 18828 ft | 384 kts | 294° |
| 2026-05-06 20:19 | 38.22597 | 23.27984 | 19380 ft | 387 kts | 294° |
| 2026-05-06 20:19 | 38.23673 | 23.24837 | 19902 ft | 390 kts | 294° |
| 2026-05-06 20:19 | 38.24757 | 23.21661 | 20425 ft | 393 kts | 294° |
| 2026-05-06 20:20 | 38.25848 | 23.18462 | 20924 ft | 396 kts | 294° |
| 2026-05-06 20:20 | 38.26949 | 23.15232 | 21419 ft | 399 kts | 294° |
| 2026-05-06 20:20 | 38.28056 | 23.11981 | 21877 ft | 401 kts | 294° |
| 2026-05-06 20:20 | 38.29167 | 23.08716 | 22324 ft | 404 kts | 294° |
| 2026-05-06 20:21 | 38.30288 | 23.05416 | 22782 ft | 407 kts | 294° |
| 2026-05-06 20:21 | 38.31400 | 23.02126 | 23222 ft | 410 kts | 294° |
| 2026-05-06 20:21 | 38.32528 | 22.98783 | 23650 ft | 413 kts | 294° |
| 2026-05-06 20:21 | 38.33665 | 22.95415 | 24027 ft | 415 kts | 294° |
| 2026-05-06 20:22 | 38.34804 | 22.92030 | 24414 ft | 417 kts | 294° |
| 2026-05-06 20:22 | 38.35950 | 22.88620 | 24791 ft | 419 kts | 294° |
| 2026-05-06 20:22 | 38.37098 | 22.85202 | 25156 ft | 421 kts | 294° |
| 2026-05-06 20:22 | 38.38253 | 22.81768 | 25555 ft | 422 kts | 294° |
| 2026-05-06 20:23 | 38.39411 | 22.78324 | 25931 ft | 424 kts | 294° |
| 2026-05-06 20:23 | 38.40579 | 22.74846 | 26293 ft | 427 kts | 294° |
| 2026-05-06 20:23 | 38.41752 | 22.71367 | 26651 ft | 429 kts | 294° |
| 2026-05-06 20:23 | 38.42933 | 22.67863 | 27031 ft | 431 kts | 294° |
| 2026-05-06 20:24 | 38.44119 | 22.64340 | 27390 ft | 433 kts | 294° |
| 2026-05-06 20:24 | 38.45306 | 22.60797 | 27753 ft | 435 kts | 294° |
| 2026-05-06 20:24 | 38.46492 | 22.57241 | 28136 ft | 437 kts | 294° |
| 2026-05-06 20:24 | 38.47679 | 22.53673 | 28593 ft | 436 kts | 294° |
| 2026-05-06 20:25 | 38.48862 | 22.50111 | 29101 ft | 435 kts | 294° |
| 2026-05-06 20:25 | 38.50037 | 22.46572 | 29638 ft | 433 kts | 294° |
| 2026-05-06 20:25 | 38.51210 | 22.43026 | 30031 ft | 433 kts | 294° |
| 2026-05-06 20:25 | 38.52384 | 22.39485 | 30102 ft | 435 kts | 294° |
| 2026-05-06 20:26 | 38.54735 | 22.32394 | 30109 ft | 436 kts | 294° |
| 2026-05-06 20:26 | 38.57094 | 22.25259 | 30108 ft | 436 kts | 294° |
| 2026-05-06 20:27 | 38.59446 | 22.18094 | 30116 ft | 436 kts | 294° |
| 2026-05-06 20:27 | 38.61791 | 22.10941 | 30113 ft | 437 kts | 294° |
| 2026-05-06 20:28 | 38.64133 | 22.03805 | 30115 ft | 438 kts | 294° |
| 2026-05-06 20:28 | 38.66488 | 21.96613 | 30115 ft | 438 kts | 294° |
| 2026-05-06 20:29 | 38.68840 | 21.89412 | 30115 ft | 438 kts | 294° |
| 2026-05-06 20:29 | 38.71184 | 21.82205 | 30117 ft | 439 kts | 294° |
| 2026-05-06 20:30 | 38.74701 | 21.71362 | 30107 ft | 440 kts | 294° |
| 2026-05-06 20:31 | 38.77049 | 21.64113 | 30110 ft | 441 kts | 294° |
| 2026-05-06 20:31 | 38.79387 | 21.56845 | 30112 ft | 442 kts | 294° |
| 2026-05-06 20:32 | 38.81731 | 21.49556 | 30109 ft | 442 kts | 294° |
| 2026-05-06 20:32 | 38.84073 | 21.42271 | 30112 ft | 442 kts | 294° |
| 2026-05-06 20:33 | 38.86406 | 21.34981 | 30123 ft | 442 kts | 294° |
| 2026-05-06 20:33 | 38.88733 | 21.27683 | 30116 ft | 442 kts | 294° |
| 2026-05-06 20:34 | 38.91040 | 21.20426 | 30114 ft | 442 kts | 294° |
| 2026-05-06 20:34 | 38.93362 | 21.13112 | 30115 ft | 442 kts | 294° |
| 2026-05-06 20:35 | 38.95682 | 21.05788 | 30117 ft | 443 kts | 294° |
| 2026-05-06 20:35 | 38.98008 | 20.98452 | 30130 ft | 442 kts | 296° |
| 2026-05-06 20:36 | 39.01155 | 20.91728 | 30137 ft | 439 kts | 305° |
| 2026-05-06 20:36 | 39.04559 | 20.85188 | 30139 ft | 439 kts | 305° |
| 2026-05-06 20:37 | 39.07942 | 20.78637 | 30128 ft | 439 kts | 305° |
| 2026-05-06 20:37 | 39.11323 | 20.72085 | 30123 ft | 440 kts | 305° |
| 2026-05-06 20:38 | 39.14706 | 20.65510 | 30124 ft | 440 kts | 304° |
| 2026-05-06 20:38 | 39.18083 | 20.58928 | 30114 ft | 440 kts | 304° |
| 2026-05-06 20:39 | 39.21457 | 20.52346 | 30119 ft | 440 kts | 304° |
| 2026-05-06 20:39 | 39.24807 | 20.45800 | 30105 ft | 440 kts | 304° |
| 2026-05-06 20:40 | 39.27626 | 20.40282 | 30109 ft | 441 kts | 304° |
| 2026-05-06 20:40 | 39.31542 | 20.32599 | 30050 ft | 440 kts | 304° |
| 2026-05-06 20:40 | 39.32676 | 20.30376 | 29386 ft | 440 kts | 304° |
| 2026-05-06 20:41 | 39.34391 | 20.27016 | 27859 ft | 452 kts | 303° |
| 2026-05-06 20:41 | 39.36109 | 20.23643 | 26532 ft | 460 kts | 303° |
| 2026-05-06 20:41 | 39.37904 | 20.20111 | 25365 ft | 463 kts | 302° |
| 2026-05-06 20:41 | 39.39665 | 20.16632 | 24420 ft | 461 kts | 302° |
| 2026-05-06 20:42 | 39.41377 | 20.13209 | 23544 ft | 457 kts | 299° |
| 2026-05-06 20:42 | 39.42705 | 20.09505 | 22597 ft | 450 kts | 288° |
| 2026-05-06 20:42 | 39.43412 | 20.05605 | 21675 ft | 443 kts | 277° |
| 2026-05-06 20:42 | 39.43514 | 20.01657 | 20798 ft | 437 kts | 266° |
| 2026-05-06 20:43 | 39.43085 | 19.97794 | 19954 ft | 432 kts | 260° |
| 2026-05-06 20:43 | 39.42561 | 19.93992 | 19140 ft | 427 kts | 260° |
| 2026-05-06 20:43 | 39.42042 | 19.90233 | 18331 ft | 422 kts | 260° |
| 2026-05-06 20:43 | 39.41527 | 19.86516 | 17418 ft | 417 kts | 260° |
| 2026-05-06 20:44 | 39.41019 | 19.82846 | 16532 ft | 412 kts | 260° |
| 2026-05-06 20:44 | 39.40514 | 19.79222 | 15673 ft | 408 kts | 260° |
| 2026-05-06 20:44 | 39.40013 | 19.75635 | 14986 ft | 402 kts | 260° |
| 2026-05-06 20:44 | 39.39518 | 19.72101 | 14337 ft | 396 kts | 260° |
| 2026-05-06 20:45 | 39.39031 | 19.68626 | 13636 ft | 392 kts | 259° |
| 2026-05-06 20:45 | 39.38545 | 19.65179 | 12938 ft | 386 kts | 259° |
| 2026-05-06 20:45 | 39.38063 | 19.61782 | 12256 ft | 381 kts | 259° |
| 2026-05-06 20:45 | 39.37740 | 19.58415 | 11549 ft | 377 kts | 271° |
| 2026-05-06 20:46 | 39.38269 | 19.55179 | 11005 ft | 371 kts | 292° |
| 2026-05-06 20:46 | 39.39652 | 19.52456 | 10853 ft | 356 kts | 311° |
| 2026-05-06 20:46 | 39.41557 | 19.50535 | 10741 ft | 342 kts | 326° |
| 2026-05-06 20:46 | 39.43572 | 19.49021 | 10615 ft | 328 kts | 329° |
| 2026-05-06 20:47 | 39.45579 | 19.47734 | 10501 ft | 317 kts | 333° |
| 2026-05-06 20:47 | 39.47595 | 19.46699 | 10391 ft | 308 kts | 343° |
| 2026-05-06 20:47 | 39.49705 | 19.46480 | 10229 ft | 304 kts | 5° |
| 2026-05-06 20:47 | 39.51693 | 19.47300 | 10109 ft | 302 kts | 28° |
| 2026-05-06 20:48 | 39.53339 | 19.49009 | 9593 ft | 312 kts | 51° |
| 2026-05-06 20:48 | 39.54343 | 19.51479 | 9264 ft | 308 kts | 70° |
| 2026-05-06 20:48 | 39.55101 | 19.54057 | 8972 ft | 305 kts | 70° |
| 2026-05-06 20:48 | 39.55868 | 19.56604 | 8314 ft | 305 kts | 69° |
| 2026-05-06 20:49 | 39.56611 | 19.59198 | 7505 ft | 306 kts | 76° |
| 2026-05-06 20:49 | 39.57015 | 19.61902 | 6735 ft | 306 kts | 82° |
| 2026-05-06 20:49 | 39.57360 | 19.64567 | 6391 ft | 292 kts | 82° |
| 2026-05-06 20:49 | 39.57685 | 19.67073 | 6241 ft | 272 kts | 82° |
| 2026-05-06 20:50 | 39.57986 | 19.69404 | 6128 ft | 253 kts | 83° |
| 2026-05-06 20:50 | 39.58266 | 19.71599 | 5829 ft | 243 kts | 83° |
| 2026-05-06 20:50 | 39.58532 | 19.73731 | 5484 ft | 236 kts | 83° |
| 2026-05-06 20:50 | 39.58787 | 19.75795 | 5159 ft | 229 kts | 84° |
| 2026-05-06 20:51 | 39.59032 | 19.77776 | 4854 ft | 222 kts | 84° |
| 2026-05-06 20:51 | 39.59275 | 19.79743 | 4538 ft | 215 kts | 84° |
| 2026-05-06 20:51 | 39.59505 | 19.81619 | 4262 ft | 205 kts | 83° |
| 2026-05-06 20:51 | 39.59720 | 19.83373 | 3985 ft | 194 kts | 83° |
| 2026-05-06 20:52 | 39.59925 | 19.85040 | 3729 ft | 182 kts | 83° |
| 2026-05-06 20:52 | 39.60119 | 19.86630 | 3477 ft | 175 kts | 84° |
| 2026-05-06 20:52 | 39.60306 | 19.88131 | 3286 ft | 160 kts | 83° |
| 2026-05-06 20:52 | 39.60477 | 19.89510 | 3045 ft | 151 kts | 84° |
| 2026-05-06 20:53 | 39.60487 | 19.90833 | 2787 ft | 144 kts | 106° |
| 2026-05-06 20:53 | 39.60068 | 19.91973 | 2634 ft | 138 kts | 129° |
| 2026-05-06 20:53 | 39.59461 | 19.92866 | 2389 ft | 130 kts | 138° |
| 2026-05-06 20:53 | 39.58800 | 19.93667 | 2050 ft | 130 kts | 140° |
| 2026-05-06 20:54 | 39.58116 | 19.94385 | 1849 ft | 131 kts | 144° |
| 2026-05-06 20:54 | 39.57297 | 19.95163 | 1989 ft | 152 kts | 148° |
| 2026-05-06 20:54 | 39.56316 | 19.95662 | 2145 ft | 152 kts | 171° |
| 2026-05-06 20:54 | 39.55326 | 19.95730 | 2216 ft | 131 kts | 180° |
| 2026-05-06 20:55 | 39.54437 | 19.95713 | 2110 ft | 141 kts | 183° |
| 2026-05-06 20:55 | 39.53457 | 19.95574 | 2200 ft | 143 kts | 189° |
| 2026-05-06 20:55 | 39.52495 | 19.95201 | 2270 ft | 148 kts | 209° |
| 2026-05-06 20:55 | 39.51941 | 19.94145 | 2486 ft | 146 kts | 269° |
| 2026-05-06 20:56 | 39.52506 | 19.93087 | 2716 ft | 160 kts | 336° |
| 2026-05-06 20:56 | 39.53696 | 19.92791 | 2015 ft | 183 kts | 349° |
| 2026-05-06 20:56 | 39.54971 | 19.92492 | 1135 ft | 186 kts | 349° |
| 2026-05-06 20:56 | 39.56180 | 19.92203 | 643 ft | 170 kts | 349° |
| 2026-05-06 20:57 | 39.57286 | 19.91951 | 387 ft | 153 kts | 349° |
| 2026-05-06 20:57 | 39.58315 | 19.91689 | 201 ft | 147 kts | 349° |
| 2026-05-06 20:57 | 39.59294 | 19.91444 | 27 ft | 144 kts | 348° |
| 2026-05-06 20:57 | 39.60198 | 19.91213 | 11 ft | 104 kts | 349° |
| 2026-05-06 20:58 | 39.60669 | 19.91091 | 10 ft | 51 kts | 348° |
| 2026-05-06 20:58 | 39.60982 | 19.91010 | 10 ft | 21 kts | 349° |
| 2026-05-06 20:58 | 39.61036 | 19.91067 | 9 ft | 9 kts | 66° |
| 2026-05-06 20:58 | 39.61006 | 19.91133 | 9 ft | 10 kts | 157° |
| 2026-05-06 20:59 | 39.60925 | 19.91156 | 9 ft | 13 kts | 170° |
| 2026-05-06 20:59 | 39.60822 | 19.91182 | 10 ft | 17 kts | 167° |
| 2026-05-06 20:59 | 39.60776 | 19.91280 | 9 ft | 6 kts | 86° |
| 2026-05-06 20:59 | 39.60779 | 19.91297 | 9 ft | 0 kts | 75° |